sensor_id;sensor_type;location;lat;lon;timestamp;temperature;humidity
54006;DHT22;39919;38.160;-122.260;2023-05-14T00:01:31;30.70;50.90
54006;DHT22;39919;38.160;-122.260;2023-05-14T00:04:02;30.70;51.20
54006;DHT22;39919;38.160;-122.260;2023-05-14T00:06:34;30.80;51.60
54006;DHT22;39919;38.160;-122.260;2023-05-14T00:09:03;30.70;51.90
54006;DHT22;39919;38.160;-122.260;2023-05-14T00:11:35;30.70;52.40
54006;DHT22;39919;38.160;-122.260;2023-05-14T00:14:05;30.70;52.70
54006;DHT22;39919;38.160;-122.260;2023-05-14T00:16:37;30.70;53.00
54006;DHT22;39919;38.160;-122.260;2023-05-14T00:19:06;30.70;53.30
54006;DHT22;39919;38.160;-122.260;2023-05-14T00:21:35;30.70;53.00
54006;DHT22;39919;38.160;-122.260;2023-05-14T00:24:14;30.60;52.80
54006;DHT22;39919;38.160;-122.260;2023-05-14T00:26:45;30.60;52.80
54006;DHT22;39919;38.160;-122.260;2023-05-14T00:29:22;30.60;52.40
54006;DHT22;39919;38.160;-122.260;2023-05-14T00:31:51;30.50;52.60
54006;DHT22;39919;38.160;-122.260;2023-05-14T00:34:21;30.50;52.60
54006;DHT22;39919;38.160;-122.260;2023-05-14T00:36:51;30.50;52.40
54006;DHT22;39919;38.160;-122.260;2023-05-14T00:39:22;30.40;52.10
54006;DHT22;39919;38.160;-122.260;2023-05-14T00:41:55;30.30;51.20
54006;DHT22;39919;38.160;-122.260;2023-05-14T00:44:25;30.30;51.10
54006;DHT22;39919;38.160;-122.260;2023-05-14T00:46:54;30.20;50.60
54006;DHT22;39919;38.160;-122.260;2023-05-14T00:49:26;30.20;51.60
54006;DHT22;39919;38.160;-122.260;2023-05-14T00:51:56;30.20;52.00
54006;DHT22;39919;38.160;-122.260;2023-05-14T00:54:26;30.20;51.80
54006;DHT22;39919;38.160;-122.260;2023-05-14T00:56:58;30.10;50.10
54006;DHT22;39919;38.160;-122.260;2023-05-14T00:59:27;30.10;49.80
54006;DHT22;39919;38.160;-122.260;2023-05-14T01:01:56;30.10;48.70
54006;DHT22;39919;38.160;-122.260;2023-05-14T01:04:26;30.00;49.70
54006;DHT22;39919;38.160;-122.260;2023-05-14T01:07:02;30.00;49.50
54006;DHT22;39919;38.160;-122.260;2023-05-14T01:09:38;29.90;49.20
54006;DHT22;39919;38.160;-122.260;2023-05-14T01:12:18;29.80;49.50
54006;DHT22;39919;38.160;-122.260;2023-05-14T01:14:56;29.80;48.90
54006;DHT22;39919;38.160;-122.260;2023-05-14T01:17:28;29.80;48.40
54006;DHT22;39919;38.160;-122.260;2023-05-14T01:19:59;29.70;48.70
54006;DHT22;39919;38.160;-122.260;2023-05-14T01:22:31;29.70;49.20
54006;DHT22;39919;38.160;-122.260;2023-05-14T01:25:11;29.60;49.50
54006;DHT22;39919;38.160;-122.260;2023-05-14T01:27:47;29.50;48.40
54006;DHT22;39919;38.160;-122.260;2023-05-14T01:30:22;29.40;48.90
54006;DHT22;39919;38.160;-122.260;2023-05-14T01:32:55;29.40;49.30
54006;DHT22;39919;38.160;-122.260;2023-05-14T01:35:29;29.30;49.50
54006;DHT22;39919;38.160;-122.260;2023-05-14T01:38:02;29.20;49.20
54006;DHT22;39919;38.160;-122.260;2023-05-14T01:40:32;29.20;49.10
54006;DHT22;39919;38.160;-122.260;2023-05-14T01:43:04;29.10;49.40
54006;DHT22;39919;38.160;-122.260;2023-05-14T01:45:35;29.00;49.50
54006;DHT22;39919;38.160;-122.260;2023-05-14T01:48:04;28.90;50.00
54006;DHT22;39919;38.160;-122.260;2023-05-14T01:50:34;28.80;50.00
54006;DHT22;39919;38.160;-122.260;2023-05-14T01:53:05;28.80;49.90
54006;DHT22;39919;38.160;-122.260;2023-05-14T01:55:37;28.70;49.60
54006;DHT22;39919;38.160;-122.260;2023-05-14T01:58:06;28.60;50.20
54006;DHT22;39919;38.160;-122.260;2023-05-14T02:00:39;28.50;50.20
54006;DHT22;39919;38.160;-122.260;2023-05-14T02:03:08;28.50;50.40
54006;DHT22;39919;38.160;-122.260;2023-05-14T02:05:37;28.40;50.20
54006;DHT22;39919;38.160;-122.260;2023-05-14T02:08:08;28.30;50.00
54006;DHT22;39919;38.160;-122.260;2023-05-14T02:10:37;28.20;50.20
54006;DHT22;39919;38.160;-122.260;2023-05-14T02:13:06;28.20;49.90
54006;DHT22;39919;38.160;-122.260;2023-05-14T02:15:36;28.10;50.40
54006;DHT22;39919;38.160;-122.260;2023-05-14T02:18:05;28.00;49.30
54006;DHT22;39919;38.160;-122.260;2023-05-14T02:20:35;27.90;49.50
54006;DHT22;39919;38.160;-122.260;2023-05-14T02:23:04;27.80;49.90
54006;DHT22;39919;38.160;-122.260;2023-05-14T02:25:38;27.80;49.40
54006;DHT22;39919;38.160;-122.260;2023-05-14T02:28:07;27.70;48.50
54006;DHT22;39919;38.160;-122.260;2023-05-14T02:30:37;27.60;49.40
54006;DHT22;39919;38.160;-122.260;2023-05-14T02:33:06;27.50;48.80
54006;DHT22;39919;38.160;-122.260;2023-05-14T02:35:37;27.40;49.60
54006;DHT22;39919;38.160;-122.260;2023-05-14T02:38:07;27.40;49.60
54006;DHT22;39919;38.160;-122.260;2023-05-14T02:40:41;27.30;49.30
54006;DHT22;39919;38.160;-122.260;2023-05-14T02:43:10;27.10;49.10
54006;DHT22;39919;38.160;-122.260;2023-05-14T02:45:39;27.10;48.30
54006;DHT22;39919;38.160;-122.260;2023-05-14T02:48:08;27.00;48.80
54006;DHT22;39919;38.160;-122.260;2023-05-14T02:50:37;26.90;49.30
54006;DHT22;39919;38.160;-122.260;2023-05-14T02:53:07;26.90;49.30
54006;DHT22;39919;38.160;-122.260;2023-05-14T02:55:38;26.80;49.50
54006;DHT22;39919;38.160;-122.260;2023-05-14T02:58:07;26.70;50.10
54006;DHT22;39919;38.160;-122.260;2023-05-14T03:00:36;26.60;50.40
54006;DHT22;39919;38.160;-122.260;2023-05-14T03:03:06;26.50;50.90
54006;DHT22;39919;38.160;-122.260;2023-05-14T03:05:35;26.40;51.10
54006;DHT22;39919;38.160;-122.260;2023-05-14T03:08:04;26.40;51.60
54006;DHT22;39919;38.160;-122.260;2023-05-14T03:10:33;26.30;52.30
54006;DHT22;39919;38.160;-122.260;2023-05-14T03:13:04;26.20;52.90
54006;DHT22;39919;38.160;-122.260;2023-05-14T03:15:33;26.10;52.90
54006;DHT22;39919;38.160;-122.260;2023-05-14T03:18:02;26.00;53.20
54006;DHT22;39919;38.160;-122.260;2023-05-14T03:20:32;26.00;53.70
54006;DHT22;39919;38.160;-122.260;2023-05-14T03:23:01;25.90;54.00
54006;DHT22;39919;38.160;-122.260;2023-05-14T03:25:30;25.80;54.20
54006;DHT22;39919;38.160;-122.260;2023-05-14T03:28:00;25.70;54.30
54006;DHT22;39919;38.160;-122.260;2023-05-14T03:30:30;25.60;54.40
54006;DHT22;39919;38.160;-122.260;2023-05-14T03:33:00;25.50;54.50
54006;DHT22;39919;38.160;-122.260;2023-05-14T03:35:29;25.50;54.60
54006;DHT22;39919;38.160;-122.260;2023-05-14T03:37:58;25.40;54.70
54006;DHT22;39919;38.160;-122.260;2023-05-14T03:40:30;25.30;54.70
54006;DHT22;39919;38.160;-122.260;2023-05-14T03:42:59;25.20;54.70
54006;DHT22;39919;38.160;-122.260;2023-05-14T03:45:30;25.10;54.70
54006;DHT22;39919;38.160;-122.260;2023-05-14T03:47:59;25.00;54.70
54006;DHT22;39919;38.160;-122.260;2023-05-14T03:50:29;25.00;54.90
54006;DHT22;39919;38.160;-122.260;2023-05-14T03:52:58;24.90;55.00
54006;DHT22;39919;38.160;-122.260;2023-05-14T03:55:27;24.80;55.00
54006;DHT22;39919;38.160;-122.260;2023-05-14T03:57:57;24.70;55.30
54006;DHT22;39919;38.160;-122.260;2023-05-14T04:00:26;24.60;55.50
54006;DHT22;39919;38.160;-122.260;2023-05-14T04:02:57;24.50;55.70
54006;DHT22;39919;38.160;-122.260;2023-05-14T04:05:27;24.50;55.80
54006;DHT22;39919;38.160;-122.260;2023-05-14T04:07:56;24.40;56.00
54006;DHT22;39919;38.160;-122.260;2023-05-14T04:10:28;24.30;56.10
54006;DHT22;39919;38.160;-122.260;2023-05-14T04:12:57;24.20;56.00
54006;DHT22;39919;38.160;-122.260;2023-05-14T04:15:27;24.20;55.80
54006;DHT22;39919;38.160;-122.260;2023-05-14T04:17:58;24.10;56.00
54006;DHT22;39919;38.160;-122.260;2023-05-14T04:20:27;24.10;56.20
54006;DHT22;39919;38.160;-122.260;2023-05-14T04:22:57;24.00;56.00
54006;DHT22;39919;38.160;-122.260;2023-05-14T04:25:26;24.00;56.30
54006;DHT22;39919;38.160;-122.260;2023-05-14T04:27:58;23.90;56.50
54006;DHT22;39919;38.160;-122.260;2023-05-14T04:30:27;23.80;56.70
54006;DHT22;39919;38.160;-122.260;2023-05-14T04:33:03;23.80;57.10
54006;DHT22;39919;38.160;-122.260;2023-05-14T04:35:37;23.70;57.00
54006;DHT22;39919;38.160;-122.260;2023-05-14T04:38:06;23.70;57.60
54006;DHT22;39919;38.160;-122.260;2023-05-14T04:40:37;23.60;58.00
54006;DHT22;39919;38.160;-122.260;2023-05-14T04:43:07;23.50;58.70
54006;DHT22;39919;38.160;-122.260;2023-05-14T04:45:36;23.50;59.00
54006;DHT22;39919;38.160;-122.260;2023-05-14T04:48:12;23.50;60.30
54006;DHT22;39919;38.160;-122.260;2023-05-14T04:50:41;23.40;60.70
54006;DHT22;39919;38.160;-122.260;2023-05-14T04:53:11;23.30;60.80
54006;DHT22;39919;38.160;-122.260;2023-05-14T04:55:40;23.20;61.50
54006;DHT22;39919;38.160;-122.260;2023-05-14T04:58:13;23.20;62.30
54006;DHT22;39919;38.160;-122.260;2023-05-14T05:00:42;23.20;62.70
54006;DHT22;39919;38.160;-122.260;2023-05-14T05:03:13;23.10;62.90
54006;DHT22;39919;38.160;-122.260;2023-05-14T05:05:42;23.00;63.10
54006;DHT22;39919;38.160;-122.260;2023-05-14T05:08:11;22.90;63.50
54006;DHT22;39919;38.160;-122.260;2023-05-14T05:10:40;22.90;63.70
54006;DHT22;39919;38.160;-122.260;2023-05-14T05:13:12;22.80;63.80
54006;DHT22;39919;38.160;-122.260;2023-05-14T05:15:42;22.70;63.90
54006;DHT22;39919;38.160;-122.260;2023-05-14T05:18:13;22.70;64.40
54006;DHT22;39919;38.160;-122.260;2023-05-14T05:20:42;22.60;64.60
54006;DHT22;39919;38.160;-122.260;2023-05-14T05:23:12;22.50;64.90
54006;DHT22;39919;38.160;-122.260;2023-05-14T05:25:41;22.40;65.30
54006;DHT22;39919;38.160;-122.260;2023-05-14T05:28:11;22.30;65.60
54006;DHT22;39919;38.160;-122.260;2023-05-14T05:30:40;22.30;65.80
54006;DHT22;39919;38.160;-122.260;2023-05-14T05:33:12;22.20;65.90
54006;DHT22;39919;38.160;-122.260;2023-05-14T05:35:41;22.10;66.60
54006;DHT22;39919;38.160;-122.260;2023-05-14T05:38:11;22.00;66.90
54006;DHT22;39919;38.160;-122.260;2023-05-14T05:40:44;21.90;67.10
54006;DHT22;39919;38.160;-122.260;2023-05-14T05:43:14;21.80;67.00
54006;DHT22;39919;38.160;-122.260;2023-05-14T05:45:44;21.70;67.20
54006;DHT22;39919;38.160;-122.260;2023-05-14T05:48:14;21.60;67.30
54006;DHT22;39919;38.160;-122.260;2023-05-14T05:50:49;21.50;67.60
54006;DHT22;39919;38.160;-122.260;2023-05-14T05:53:18;21.50;67.90
54006;DHT22;39919;38.160;-122.260;2023-05-14T05:55:50;21.40;68.00
54006;DHT22;39919;38.160;-122.260;2023-05-14T05:58:20;21.30;68.00
54006;DHT22;39919;38.160;-122.260;2023-05-14T06:00:49;21.20;68.10
54006;DHT22;39919;38.160;-122.260;2023-05-14T06:03:22;21.20;68.50
54006;DHT22;39919;38.160;-122.260;2023-05-14T06:05:51;21.10;68.70
54006;DHT22;39919;38.160;-122.260;2023-05-14T06:08:20;21.00;69.00
54006;DHT22;39919;38.160;-122.260;2023-05-14T06:10:49;20.90;69.70
54006;DHT22;39919;38.160;-122.260;2023-05-14T06:13:19;20.90;70.30
54006;DHT22;39919;38.160;-122.260;2023-05-14T06:15:48;20.80;70.60
54006;DHT22;39919;38.160;-122.260;2023-05-14T06:18:21;20.80;74.40
54006;DHT22;39919;38.160;-122.260;2023-05-14T06:20:51;20.20;98.40
54006;DHT22;39919;38.160;-122.260;2023-05-14T06:23:22;20.70;95.70
54006;DHT22;39919;38.160;-122.260;2023-05-14T06:25:52;20.60;92.80
54006;DHT22;39919;38.160;-122.260;2023-05-14T06:28:21;20.50;91.90
54006;DHT22;39919;38.160;-122.260;2023-05-14T06:30:50;20.40;91.20
54006;DHT22;39919;38.160;-122.260;2023-05-14T06:33:22;20.30;89.10
54006;DHT22;39919;38.160;-122.260;2023-05-14T06:35:57;20.20;70.80
54006;DHT22;39919;38.160;-122.260;2023-05-14T06:38:26;20.20;70.40
54006;DHT22;39919;38.160;-122.260;2023-05-14T06:40:55;20.10;69.90
54006;DHT22;39919;38.160;-122.260;2023-05-14T06:43:24;20.10;69.70
54006;DHT22;39919;38.160;-122.260;2023-05-14T06:45:53;20.00;70.00
54006;DHT22;39919;38.160;-122.260;2023-05-14T06:48:24;20.00;70.40
54006;DHT22;39919;38.160;-122.260;2023-05-14T06:50:55;19.90;71.00
54006;DHT22;39919;38.160;-122.260;2023-05-14T06:53:24;19.90;71.40
54006;DHT22;39919;38.160;-122.260;2023-05-14T06:55:56;19.80;71.60
54006;DHT22;39919;38.160;-122.260;2023-05-14T06:58:25;19.80;71.30
54006;DHT22;39919;38.160;-122.260;2023-05-14T07:00:54;19.70;71.40
54006;DHT22;39919;38.160;-122.260;2023-05-14T07:03:25;19.70;71.50
54006;DHT22;39919;38.160;-122.260;2023-05-14T07:05:54;19.60;71.60
54006;DHT22;39919;38.160;-122.260;2023-05-14T07:08:24;19.50;71.70
54006;DHT22;39919;38.160;-122.260;2023-05-14T07:10:53;19.60;72.20
54006;DHT22;39919;38.160;-122.260;2023-05-14T07:13:23;19.50;72.30
54006;DHT22;39919;38.160;-122.260;2023-05-14T07:15:52;19.40;72.90
54006;DHT22;39919;38.160;-122.260;2023-05-14T07:18:24;19.30;73.10
54006;DHT22;39919;38.160;-122.260;2023-05-14T07:20:53;19.30;73.00
54006;DHT22;39919;38.160;-122.260;2023-05-14T07:23:23;19.20;73.10
54006;DHT22;39919;38.160;-122.260;2023-05-14T07:25:53;19.10;73.10
54006;DHT22;39919;38.160;-122.260;2023-05-14T07:28:23;19.10;73.40
54006;DHT22;39919;38.160;-122.260;2023-05-14T07:30:52;19.00;73.70
54006;DHT22;39919;38.160;-122.260;2023-05-14T07:33:21;19.00;73.30
54006;DHT22;39919;38.160;-122.260;2023-05-14T07:35:52;18.90;73.50
54006;DHT22;39919;38.160;-122.260;2023-05-14T07:38:22;18.90;74.70
54006;DHT22;39919;38.160;-122.260;2023-05-14T07:40:51;18.90;74.80
54006;DHT22;39919;38.160;-122.260;2023-05-14T07:43:20;18.70;74.50
54006;DHT22;39919;38.160;-122.260;2023-05-14T07:45:49;18.70;74.90
54006;DHT22;39919;38.160;-122.260;2023-05-14T07:48:19;18.60;74.80
54006;DHT22;39919;38.160;-122.260;2023-05-14T07:50:48;18.60;74.70
54006;DHT22;39919;38.160;-122.260;2023-05-14T07:53:19;18.50;75.60
54006;DHT22;39919;38.160;-122.260;2023-05-14T07:55:49;18.40;75.90
54006;DHT22;39919;38.160;-122.260;2023-05-14T07:58:18;18.40;76.40
54006;DHT22;39919;38.160;-122.260;2023-05-14T08:00:48;18.30;75.70
54006;DHT22;39919;38.160;-122.260;2023-05-14T08:03:19;18.30;75.10
54006;DHT22;39919;38.160;-122.260;2023-05-14T08:05:48;18.20;75.10
54006;DHT22;39919;38.160;-122.260;2023-05-14T08:08:19;18.10;75.40
54006;DHT22;39919;38.160;-122.260;2023-05-14T08:10:48;18.10;75.80
54006;DHT22;39919;38.160;-122.260;2023-05-14T08:13:18;18.00;75.10
54006;DHT22;39919;38.160;-122.260;2023-05-14T08:15:47;18.00;75.00
54006;DHT22;39919;38.160;-122.260;2023-05-14T08:18:17;17.90;75.00
54006;DHT22;39919;38.160;-122.260;2023-05-14T08:20:46;17.90;75.00
54006;DHT22;39919;38.160;-122.260;2023-05-14T08:23:20;17.80;75.60
54006;DHT22;39919;38.160;-122.260;2023-05-14T08:25:49;17.80;76.70
54006;DHT22;39919;38.160;-122.260;2023-05-14T08:28:19;17.70;77.70
54006;DHT22;39919;38.160;-122.260;2023-05-14T08:30:48;17.70;78.10
54006;DHT22;39919;38.160;-122.260;2023-05-14T08:33:20;17.60;78.70
54006;DHT22;39919;38.160;-122.260;2023-05-14T08:35:52;17.60;78.30
54006;DHT22;39919;38.160;-122.260;2023-05-14T08:38:23;17.60;77.90
54006;DHT22;39919;38.160;-122.260;2023-05-14T08:40:56;17.50;77.40
54006;DHT22;39919;38.160;-122.260;2023-05-14T08:43:37;17.50;78.00
54006;DHT22;39919;38.160;-122.260;2023-05-14T08:46:11;17.40;78.60
54006;DHT22;39919;38.160;-122.260;2023-05-14T08:48:45;17.40;78.90
54006;DHT22;39919;38.160;-122.260;2023-05-14T08:51:15;17.40;79.80
54006;DHT22;39919;38.160;-122.260;2023-05-14T08:53:47;17.30;79.60
54006;DHT22;39919;38.160;-122.260;2023-05-14T08:56:17;17.30;79.20
54006;DHT22;39919;38.160;-122.260;2023-05-14T08:58:47;17.20;79.40
54006;DHT22;39919;38.160;-122.260;2023-05-14T09:01:18;17.20;79.40
54006;DHT22;39919;38.160;-122.260;2023-05-14T09:03:47;17.20;80.10
54006;DHT22;39919;38.160;-122.260;2023-05-14T09:06:17;17.20;80.20
54006;DHT22;39919;38.160;-122.260;2023-05-14T09:08:50;17.20;80.50
54006;DHT22;39919;38.160;-122.260;2023-05-14T09:11:19;17.10;80.30
54006;DHT22;39919;38.160;-122.260;2023-05-14T09:13:48;17.10;80.90
54006;DHT22;39919;38.160;-122.260;2023-05-14T09:16:18;17.00;80.90
54006;DHT22;39919;38.160;-122.260;2023-05-14T09:18:48;17.00;81.60
54006;DHT22;39919;38.160;-122.260;2023-05-14T09:21:18;17.00;81.40
54006;DHT22;39919;38.160;-122.260;2023-05-14T09:23:53;16.90;81.90
54006;DHT22;39919;38.160;-122.260;2023-05-14T09:26:25;16.90;82.40
54006;DHT22;39919;38.160;-122.260;2023-05-14T09:28:58;16.90;83.00
54006;DHT22;39919;38.160;-122.260;2023-05-14T09:31:29;16.90;83.20
54006;DHT22;39919;38.160;-122.260;2023-05-14T09:33:58;16.80;83.50
54006;DHT22;39919;38.160;-122.260;2023-05-14T09:36:28;16.80;83.80
54006;DHT22;39919;38.160;-122.260;2023-05-14T09:39:00;16.80;84.70
54006;DHT22;39919;38.160;-122.260;2023-05-14T09:41:31;16.80;84.60
54006;DHT22;39919;38.160;-122.260;2023-05-14T09:44:00;16.80;84.90
54006;DHT22;39919;38.160;-122.260;2023-05-14T09:46:29;16.70;85.20
54006;DHT22;39919;38.160;-122.260;2023-05-14T09:48:58;16.70;85.10
54006;DHT22;39919;38.160;-122.260;2023-05-14T09:51:30;16.70;85.60
54006;DHT22;39919;38.160;-122.260;2023-05-14T09:54:00;16.70;85.60
54006;DHT22;39919;38.160;-122.260;2023-05-14T09:56:32;16.60;85.30
54006;DHT22;39919;38.160;-122.260;2023-05-14T09:59:02;16.60;84.60
54006;DHT22;39919;38.160;-122.260;2023-05-14T10:01:31;16.60;85.50
54006;DHT22;39919;38.160;-122.260;2023-05-14T10:04:02;16.60;85.50
54006;DHT22;39919;38.160;-122.260;2023-05-14T10:06:35;16.50;85.70
54006;DHT22;39919;38.160;-122.260;2023-05-14T10:09:11;16.50;85.80
54006;DHT22;39919;38.160;-122.260;2023-05-14T10:11:43;16.50;86.10
54006;DHT22;39919;38.160;-122.260;2023-05-14T10:14:16;16.50;85.90
54006;DHT22;39919;38.160;-122.260;2023-05-14T10:16:48;16.50;85.00
54006;DHT22;39919;38.160;-122.260;2023-05-14T10:19:20;16.50;85.40
54006;DHT22;39919;38.160;-122.260;2023-05-14T10:21:56;16.40;85.60
54006;DHT22;39919;38.160;-122.260;2023-05-14T10:24:27;16.40;85.50
54006;DHT22;39919;38.160;-122.260;2023-05-14T10:26:57;16.40;86.20
54006;DHT22;39919;38.160;-122.260;2023-05-14T10:29:32;16.40;88.80
54006;DHT22;39919;38.160;-122.260;2023-05-14T10:32:06;16.30;89.40
54006;DHT22;39919;38.160;-122.260;2023-05-14T10:34:36;16.30;89.50
54006;DHT22;39919;38.160;-122.260;2023-05-14T10:37:08;16.30;90.00
54006;DHT22;39919;38.160;-122.260;2023-05-14T10:39:46;16.30;90.30
54006;DHT22;39919;38.160;-122.260;2023-05-14T10:42:17;16.30;90.30
54006;DHT22;39919;38.160;-122.260;2023-05-14T10:44:50;16.20;90.50
54006;DHT22;39919;38.160;-122.260;2023-05-14T10:47:20;16.20;90.60
54006;DHT22;39919;38.160;-122.260;2023-05-14T10:49:51;16.20;90.70
54006;DHT22;39919;38.160;-122.260;2023-05-14T10:52:21;16.20;91.00
54006;DHT22;39919;38.160;-122.260;2023-05-14T10:54:56;16.20;91.10
54006;DHT22;39919;38.160;-122.260;2023-05-14T10:57:27;16.10;91.10
54006;DHT22;39919;38.160;-122.260;2023-05-14T10:59:58;16.10;91.00
54006;DHT22;39919;38.160;-122.260;2023-05-14T11:02:29;16.00;91.50
54006;DHT22;39919;38.160;-122.260;2023-05-14T11:05:00;16.00;91.30
54006;DHT22;39919;38.160;-122.260;2023-05-14T11:07:33;16.00;91.40
54006;DHT22;39919;38.160;-122.260;2023-05-14T11:10:05;15.90;91.40
54006;DHT22;39919;38.160;-122.260;2023-05-14T11:12:35;15.90;91.30
54006;DHT22;39919;38.160;-122.260;2023-05-14T11:15:06;15.90;91.30
54006;DHT22;39919;38.160;-122.260;2023-05-14T11:17:37;15.90;91.30
54006;DHT22;39919;38.160;-122.260;2023-05-14T11:20:07;15.90;91.50
54006;DHT22;39919;38.160;-122.260;2023-05-14T11:22:37;15.80;91.60
54006;DHT22;39919;38.160;-122.260;2023-05-14T11:25:09;15.80;91.80
54006;DHT22;39919;38.160;-122.260;2023-05-14T11:27:40;15.80;92.00
54006;DHT22;39919;38.160;-122.260;2023-05-14T11:30:14;15.70;92.30
54006;DHT22;39919;38.160;-122.260;2023-05-14T11:32:44;15.70;92.40
54006;DHT22;39919;38.160;-122.260;2023-05-14T11:35:14;15.70;92.50
54006;DHT22;39919;38.160;-122.260;2023-05-14T11:37:47;15.60;92.80
54006;DHT22;39919;38.160;-122.260;2023-05-14T11:40:19;15.60;93.00
54006;DHT22;39919;38.160;-122.260;2023-05-14T11:42:50;15.60;93.50
54006;DHT22;39919;38.160;-122.260;2023-05-14T11:45:25;15.60;93.70
54006;DHT22;39919;38.160;-122.260;2023-05-14T11:47:55;15.60;94.00
54006;DHT22;39919;38.160;-122.260;2023-05-14T11:50:24;15.60;94.40
54006;DHT22;39919;38.160;-122.260;2023-05-14T11:52:56;15.60;94.60
54006;DHT22;39919;38.160;-122.260;2023-05-14T11:55:27;15.50;94.50
54006;DHT22;39919;38.160;-122.260;2023-05-14T11:57:56;15.50;94.60
54006;DHT22;39919;38.160;-122.260;2023-05-14T12:00:26;15.50;94.50
54006;DHT22;39919;38.160;-122.260;2023-05-14T12:02:57;15.50;94.70
54006;DHT22;39919;38.160;-122.260;2023-05-14T12:05:26;15.40;94.80
54006;DHT22;39919;38.160;-122.260;2023-05-14T12:07:58;15.40;94.70
54006;DHT22;39919;38.160;-122.260;2023-05-14T12:10:28;15.40;94.80
54006;DHT22;39919;38.160;-122.260;2023-05-14T12:12:57;15.40;95.00
54006;DHT22;39919;38.160;-122.260;2023-05-14T12:15:27;15.40;95.00
54006;DHT22;39919;38.160;-122.260;2023-05-14T12:17:56;15.30;94.90
54006;DHT22;39919;38.160;-122.260;2023-05-14T12:20:25;15.30;95.00
54006;DHT22;39919;38.160;-122.260;2023-05-14T12:22:57;15.30;95.00
54006;DHT22;39919;38.160;-122.260;2023-05-14T12:25:29;15.30;95.50
54006;DHT22;39919;38.160;-122.260;2023-05-14T12:27:59;15.30;95.60
54006;DHT22;39919;38.160;-122.260;2023-05-14T12:30:28;15.30;95.50
54006;DHT22;39919;38.160;-122.260;2023-05-14T12:33:04;15.30;95.60
54006;DHT22;39919;38.160;-122.260;2023-05-14T12:35:34;15.30;99.90
54006;DHT22;39919;38.160;-122.260;2023-05-14T12:38:04;15.30;99.90
54006;DHT22;39919;38.160;-122.260;2023-05-14T12:40:34;15.30;99.90
54006;DHT22;39919;38.160;-122.260;2023-05-14T12:43:04;15.20;99.90
54006;DHT22;39919;38.160;-122.260;2023-05-14T12:45:33;15.30;99.90
54006;DHT22;39919;38.160;-122.260;2023-05-14T12:48:02;15.20;99.90
54006;DHT22;39919;38.160;-122.260;2023-05-14T12:50:31;15.20;99.90
54006;DHT22;39919;38.160;-122.260;2023-05-14T12:53:00;15.20;99.90
54006;DHT22;39919;38.160;-122.260;2023-05-14T12:55:29;15.10;99.90
54006;DHT22;39919;38.160;-122.260;2023-05-14T12:58:01;15.10;99.90
54006;DHT22;39919;38.160;-122.260;2023-05-14T13:00:30;15.10;99.90
54006;DHT22;39919;38.160;-122.260;2023-05-14T13:03:02;15.10;99.90
54006;DHT22;39919;38.160;-122.260;2023-05-14T13:05:31;15.10;99.90
54006;DHT22;39919;38.160;-122.260;2023-05-14T13:08:00;15.10;99.90
54006;DHT22;39919;38.160;-122.260;2023-05-14T13:10:30;15.10;99.90
54006;DHT22;39919;38.160;-122.260;2023-05-14T13:13:00;15.00;99.90
54006;DHT22;39919;38.160;-122.260;2023-05-14T13:15:30;15.00;99.90
54006;DHT22;39919;38.160;-122.260;2023-05-14T13:17:59;15.00;99.90
54006;DHT22;39919;38.160;-122.260;2023-05-14T13:20:28;15.00;99.90
54006;DHT22;39919;38.160;-122.260;2023-05-14T13:22:58;15.00;99.90
54006;DHT22;39919;38.160;-122.260;2023-05-14T13:25:27;15.00;99.90
54006;DHT22;39919;38.160;-122.260;2023-05-14T13:27:56;15.00;99.90
54006;DHT22;39919;38.160;-122.260;2023-05-14T13:30:27;15.00;99.90
54006;DHT22;39919;38.160;-122.260;2023-05-14T13:32:58;15.00;99.90
54006;DHT22;39919;38.160;-122.260;2023-05-14T13:35:27;15.00;99.90
54006;DHT22;39919;38.160;-122.260;2023-05-14T13:37:56;15.00;99.90
54006;DHT22;39919;38.160;-122.260;2023-05-14T13:40:25;15.10;99.90
54006;DHT22;39919;38.160;-122.260;2023-05-14T13:42:57;15.10;99.90
54006;DHT22;39919;38.160;-122.260;2023-05-14T13:45:31;14.90;99.90
54006;DHT22;39919;38.160;-122.260;2023-05-14T13:48:00;15.10;99.90
54006;DHT22;39919;38.160;-122.260;2023-05-14T13:50:29;15.20;99.90
54006;DHT22;39919;38.160;-122.260;2023-05-14T13:52:58;15.20;99.90
54006;DHT22;39919;38.160;-122.260;2023-05-14T13:55:27;15.20;99.90
54006;DHT22;39919;38.160;-122.260;2023-05-14T13:57:57;15.10;99.90
54006;DHT22;39919;38.160;-122.260;2023-05-14T14:00:26;15.30;99.90
54006;DHT22;39919;38.160;-122.260;2023-05-14T14:02:57;15.30;99.90
54006;DHT22;39919;38.160;-122.260;2023-05-14T14:05:26;15.40;98.50
54006;DHT22;39919;38.160;-122.260;2023-05-14T14:07:57;15.30;96.80
54006;DHT22;39919;38.160;-122.260;2023-05-14T14:10:27;15.40;95.20
54006;DHT22;39919;38.160;-122.260;2023-05-14T14:12:56;15.40;94.20
54006;DHT22;39919;38.160;-122.260;2023-05-14T14:15:25;15.50;94.20
54006;DHT22;39919;38.160;-122.260;2023-05-14T14:17:56;15.60;94.40
54006;DHT22;39919;38.160;-122.260;2023-05-14T14:20:25;15.70;97.60
54006;DHT22;39919;38.160;-122.260;2023-05-14T14:22:54;15.70;98.90
54006;DHT22;39919;38.160;-122.260;2023-05-14T14:25:24;15.70;98.50
54006;DHT22;39919;38.160;-122.260;2023-05-14T14:27:53;15.40;99.90
54006;DHT22;39919;38.160;-122.260;2023-05-14T14:30:22;15.20;99.90
54006;DHT22;39919;38.160;-122.260;2023-05-14T14:32:51;16.00;94.40
54006;DHT22;39919;38.160;-122.260;2023-05-14T14:35:22;16.00;96.80
54006;DHT22;39919;38.160;-122.260;2023-05-14T14:37:52;15.30;99.90
54006;DHT22;39919;38.160;-122.260;2023-05-14T14:40:21;16.00;99.90
54006;DHT22;39919;38.160;-122.260;2023-05-14T14:42:52;16.20;99.90
54006;DHT22;39919;38.160;-122.260;2023-05-14T14:45:21;16.20;99.90
54006;DHT22;39919;38.160;-122.260;2023-05-14T14:47:50;16.30;99.90
54006;DHT22;39919;38.160;-122.260;2023-05-14T14:50:21;16.40;99.90
54006;DHT22;39919;38.160;-122.260;2023-05-14T14:52:50;16.50;99.90
54006;DHT22;39919;38.160;-122.260;2023-05-14T14:55:19;16.70;99.90
54006;DHT22;39919;38.160;-122.260;2023-05-14T14:57:48;17.20;99.90
54006;DHT22;39919;38.160;-122.260;2023-05-14T15:00:18;18.00;99.90
54006;DHT22;39919;38.160;-122.260;2023-05-14T15:02:47;18.80;99.90
54006;DHT22;39919;38.160;-122.260;2023-05-14T15:05:16;19.70;99.70
54006;DHT22;39919;38.160;-122.260;2023-05-14T15:07:47;20.50;86.90